Surt, Libya
Current Conditions -  °F | °C
As of 8:00 PM on Friday 28 Nov 2014 (Local Time) from DTTD Reporting Station
Clear Clear  
Wind Chill: 75°   Ceiling: Unl
Heat Index: 75°   Visibility: 5mi
Dew Point: 34°   Wind: 12mph
Humidity: 22%   Direction: 230°SW
Pressure: 29.83"   Gusts: NA
Location:  31.21°N, 16.59°E
Report Text: DTTD 281700Z 23010KT 210V270 8000 NSC 24/01 Q1010
Loading
Personal Weather Stations






























Interactive Weather Map New forecast layout! Learn more

10-Day Weather Forecast

Advertisements
Track Severe Weather on mobile